Aérodrome :
LOGIN :

S'inscrire | Disclaimer

   EN    FR    IT 

 










Légende :    VFR   VFR Marginal   IFR   IFR Intensif   IFR Très Intensif
Visi : 
Plafond : 
>= 8 km
>= 3000ft
5 à 8 km
1000 à 3000 ft
1500m à 5 km
500 à 1000 ft
800 à 1500m
200 à 500 ft
< 800m
< 200 ft
Symboles :   Orages  Brouillard  Fortes neiges  Fortes précipitations  Vent > 20 kt
SIGMETs :   Divers  Orages  Givrage  Turbulence  Onde Orograph.  Cendres Volcan.






- Altitude de l'aérodrome : 1455 ft


ETIH - Hohenfels Army Air Field

DERNIER METAR :
  • 201555Z AUTO 00000KT 9999 CLR 23/09 A2981 RMK AO2 SLP095 T02300087 $

METARs EXPIRÉS :
  • 201455Z AUTO 18003KT 9999 CLR 23/07 A2982 RMK AO2 SLP098 T02260072 57014 $
  • 201355Z AUTO 12006KT 9999 CLR 23/08 A2983 RMK AO2 SLP101 T02260083 $
  • 201255Z AUTO 00000KT 9999 CLR 22/09 A2985 RMK AO2 SLP108 T02210093 $
  • 201155Z AUTO 00000KT 9999 FEW060 22/08 A2987 RMK AO2 SLP115 70036 T02150084 10216 20120 58003 $

Prévision TAF périmée.



MET'MAP, la Météo Aéronautique d'un coup d'oeil ! - Copyright ORBIFLY Décembre 2007 - Disclaimer

ORBIFLY MET'MAP TEAM :

Programmation & Développement : Alexandra Zaïnal
Sur une idée originale de : Baudouin d'Aumeries
Soutien technique & logistique : Manuel Goepfert
Assistance : Marc-Olivier Méhu




SOURCES & CREDITS :

   NOAA